Terminal Aerodrome Forecast
Issued by NWS

Home | Current Version | Previous Version | Text Only | Print | Product List | Glossary On
Versions: 1 2 3 4 5 6 7 8 9 10 11 12 13 14 15
000
FTUS45 KTFX 281747
TAFGTF
TAF
KGTF 281747Z 2818/2918 22013G18KT 3SM FU BKN040
     FM282000 22012G18KT 5SM FU SCT040 BKN090
     FM290200 21006KT 4SM FU SCT030 BKN060=

USA.gov is the U.S. government's official web portal to all federal, state and local government web resources and services.